createdAt,value
2023-04-21T00:00:30.794Z,10.40
2023-04-21T00:02:59.173Z,11.27
2023-04-21T00:05:29.131Z,10.97
2023-04-21T00:07:57.464Z,12.97
2023-04-21T00:10:25.820Z,12.33
2023-04-21T00:12:54.011Z,11.53
2023-04-21T00:15:22.196Z,10.27
2023-04-21T00:17:50.642Z,11.40
2023-04-21T00:20:19.192Z,12.10
2023-04-21T00:22:50.472Z,11.90
2023-04-21T00:25:24.885Z,10.87
2023-04-21T00:27:53.974Z,12.90
2023-04-21T00:30:22.309Z,13.03
2023-04-21T00:32:50.540Z,13.27
2023-04-21T00:35:18.816Z,11.07
2023-04-21T00:37:50.172Z,12.50
2023-04-21T00:40:18.482Z,10.67
2023-04-21T00:42:46.671Z,13.17
2023-04-21T00:45:15.915Z,12.40
2023-04-21T00:47:44.430Z,11.10
2023-04-21T00:50:13.862Z,11.40
2023-04-21T00:52:43.833Z,14.10
2023-04-21T00:55:14.013Z,11.73
2023-04-21T00:57:43.848Z,12.07
2023-04-21T01:00:13.836Z,13.80
2023-04-21T01:02:42.626Z,11.70
2023-04-21T01:05:12.173Z,13.07
2023-04-21T01:07:40.552Z,12.50
2023-04-21T01:10:10.183Z,13.27
2023-04-21T01:12:45.930Z,13.30
2023-04-21T01:15:15.820Z,15.93
2023-04-21T01:17:45.186Z,18.20
2023-04-21T01:20:16.227Z,14.33
2023-04-21T01:22:46.917Z,18.90
2023-04-21T01:25:17.593Z,15.73
2023-04-21T01:27:45.982Z,13.23
2023-04-21T01:30:14.448Z,13.33
2023-04-21T01:32:42.716Z,13.47
2023-04-21T01:35:11.649Z,15.53
2023-04-21T01:37:40.852Z,13.53
2023-04-21T01:40:11.797Z,13.93
2023-04-21T01:42:42.677Z,14.50
2023-04-21T01:45:12.227Z,15.27
2023-04-21T01:47:40.818Z,14.17
2023-04-21T01:50:10.719Z,13.40
2023-04-21T01:52:38.905Z,14.47
2023-04-21T01:55:08.278Z,13.83
2023-04-21T01:57:37.815Z,15.00
2023-04-21T02:00:09.246Z,16.77
2023-04-21T02:02:43.664Z,15.50
2023-04-21T02:05:14.509Z,14.63
2023-04-21T02:07:43.050Z,14.53
2023-04-21T02:10:13.778Z,18.33
2023-04-21T02:12:45.838Z,15.47
2023-04-21T02:15:14.158Z,17.33
2023-04-21T02:17:42.934Z,15.60
2023-04-21T02:20:13.353Z,15.40
2023-04-21T02:22:41.673Z,16.13
2023-04-21T02:25:10.739Z,16.70
2023-04-21T02:27:40.352Z,17.20
2023-04-21T02:30:11.311Z,15.07
2023-04-21T02:32:39.999Z,16.87
2023-04-21T02:35:09.081Z,14.60
2023-04-21T02:37:37.315Z,13.60
2023-04-21T02:40:07.280Z,14.10
2023-04-21T02:42:35.739Z,12.07
2023-04-21T02:45:04.213Z,12.87
2023-04-21T02:47:33.790Z,12.60
2023-04-21T02:50:02.016Z,13.37
2023-04-21T02:52:30.225Z,14.07
2023-04-21T02:54:59.136Z,13.17
2023-04-21T02:57:27.290Z,13.70
2023-04-21T02:59:55.526Z,14.27
2023-04-21T03:02:24.289Z,14.67
2023-04-21T03:04:54.069Z,16.67
2023-04-21T03:07:22.276Z,16.20
2023-04-21T03:09:50.605Z,18.50
2023-04-21T03:12:18.849Z,14.80
2023-04-21T03:14:47.195Z,14.60
2023-04-21T03:17:15.423Z,17.10
2023-04-21T03:19:43.620Z,15.10
2023-04-21T03:22:14.267Z,16.83
2023-04-21T03:24:42.876Z,15.40
2023-04-21T03:27:11.632Z,14.07
2023-04-21T03:29:40.248Z,16.33
2023-04-21T03:32:08.588Z,16.30
2023-04-21T03:34:37.218Z,16.90
2023-04-21T03:37:06.649Z,13.80
2023-04-21T03:39:36.202Z,14.70
2023-04-21T03:42:05.811Z,17.80
2023-04-21T03:44:34.161Z,15.00
2023-04-21T03:47:27.336Z,16.13
2023-04-21T03:49:55.586Z,15.23
2023-04-21T03:52:23.902Z,15.10
2023-04-21T03:54:53.452Z,15.43
2023-04-21T03:57:21.677Z,18.17
2023-04-21T03:59:49.918Z,17.63
2023-04-21T04:02:18.165Z,17.20
2023-04-21T04:04:47.603Z,17.60
2023-04-21T04:07:17.595Z,16.17
2023-04-21T04:09:46.547Z,19.60
2023-04-21T04:12:21.512Z,18.17
2023-04-21T04:14:50.232Z,19.17
2023-04-21T04:17:18.463Z,19.50
2023-04-21T04:19:46.641Z,19.37
2023-04-21T04:22:14.900Z,14.73
2023-04-21T04:24:45.162Z,14.37
2023-04-21T04:27:15.070Z,14.60
2023-04-21T04:29:43.985Z,15.03
2023-04-21T04:32:12.162Z,15.77
2023-04-21T04:34:40.860Z,16.90
2023-04-21T04:37:11.335Z,19.23
2023-04-21T04:39:39.609Z,18.13
2023-04-21T04:42:10.115Z,17.90
2023-04-21T04:44:41.569Z,16.83
2023-04-21T04:47:09.798Z,20.17
2023-04-21T04:49:38.227Z,30.30
2023-04-21T04:52:07.061Z,24.37
2023-04-21T04:54:35.454Z,24.67
2023-04-21T04:57:03.779Z,20.03
2023-04-21T04:59:32.164Z,23.43
2023-04-21T05:02:01.807Z,24.63
2023-04-21T05:04:30.213Z,21.00
2023-04-21T05:06:58.553Z,22.60
2023-04-21T05:09:26.756Z,26.23
2023-04-21T05:11:55.498Z,21.87
2023-04-21T05:14:23.696Z,20.10
2023-04-21T05:16:51.886Z,17.17
2023-04-21T05:19:21.392Z,17.40
2023-04-21T05:21:49.586Z,18.27
2023-04-21T05:24:23.163Z,21.17
2023-04-21T05:26:51.384Z,20.43
2023-04-21T05:29:19.582Z,23.47
2023-04-21T05:31:47.940Z,22.13
2023-04-21T05:34:16.264Z,23.07
2023-04-21T05:36:47.385Z,22.90
2023-04-21T05:39:16.355Z,20.50
2023-04-21T05:41:44.762Z,18.90
2023-04-21T05:44:13.156Z,24.00
2023-04-21T05:46:41.417Z,23.53
2023-04-21T05:49:09.664Z,24.53
2023-04-21T05:51:37.870Z,20.10
2023-04-21T05:54:07.540Z,22.27
2023-04-21T05:56:35.823Z,23.20
2023-04-21T05:59:04.007Z,21.97
2023-04-21T06:01:32.205Z,24.73
2023-04-21T06:04:00.593Z,25.60
2023-04-21T06:06:29.095Z,24.70
2023-04-21T06:08:57.345Z,27.23
2023-04-21T06:11:27.176Z,25.93
2023-04-21T06:13:58.450Z,22.30
2023-04-21T06:16:26.978Z,26.53
2023-04-21T06:18:55.318Z,25.60
2023-04-21T06:21:23.550Z,23.73
2023-04-21T06:23:51.792Z,23.70
2023-04-21T06:26:20.172Z,24.83
2023-04-21T06:28:49.755Z,21.87
2023-04-21T06:31:19.174Z,21.60
2023-04-21T06:33:47.444Z,21.57
2023-04-21T06:36:23.049Z,20.63
2023-04-21T06:38:51.277Z,23.00
2023-04-21T06:41:19.714Z,18.70
2023-04-21T06:43:49.514Z,19.20
2023-04-21T06:46:18.371Z,20.23
2023-04-21T06:48:46.724Z,22.63
2023-04-21T06:51:14.926Z,21.57
2023-04-21T06:53:43.316Z,22.00
2023-04-21T06:56:11.779Z,21.60
2023-04-21T06:58:40.017Z,19.70
2023-04-21T07:01:09.603Z,21.27
2023-04-21T07:03:37.998Z,20.03
2023-04-21T07:06:06.986Z,20.23
2023-04-21T07:08:35.148Z,22.97
2023-04-21T07:11:03.548Z,21.20
2023-04-21T07:13:31.852Z,24.07
2023-04-21T07:16:00.154Z,21.17
2023-04-21T07:18:29.676Z,22.33
2023-04-21T07:20:57.933Z,27.53
2023-04-21T07:23:26.239Z,25.50
2023-04-21T07:25:54.517Z,24.30
2023-04-21T07:28:22.745Z,24.83
2023-04-21T07:30:51.177Z,24.27
2023-04-21T07:33:19.455Z,25.30
2023-04-21T07:35:49.178Z,26.60
2023-04-21T07:38:17.494Z,25.00
2023-04-21T07:40:45.950Z,24.83
2023-04-21T07:43:14.234Z,26.73
2023-04-21T07:45:42.493Z,27.17
2023-04-21T07:48:11.848Z,26.80
2023-04-21T07:50:40.277Z,27.30
2023-04-21T07:53:09.827Z,23.90
2023-04-21T07:55:38.056Z,26.93
2023-04-21T07:58:06.648Z,23.27
2023-04-21T08:00:35.150Z,26.20
2023-04-21T08:03:03.480Z,24.13
2023-04-21T08:05:35.747Z,26.00
2023-04-21T08:08:07.319Z,26.90
2023-04-21T08:10:37.098Z,28.33
2023-04-21T08:13:06.397Z,24.63
2023-04-21T08:15:35.214Z,29.43
2023-04-21T08:18:03.450Z,26.90
2023-04-21T08:20:32.171Z,24.67
2023-04-21T08:23:00.575Z,25.33
2023-04-21T08:25:28.816Z,25.07
2023-04-21T08:27:58.365Z,25.67
2023-04-21T08:30:28.824Z,24.17
2023-04-21T08:32:57.240Z,24.07
2023-04-21T08:35:25.951Z,24.67
2023-04-21T08:37:54.161Z,26.53
2023-04-21T08:40:23.905Z,27.10
2023-04-21T08:42:52.155Z,27.47
2023-04-21T08:45:22.100Z,22.43
2023-04-21T08:47:51.014Z,21.10
2023-04-21T08:50:19.237Z,31.97
2023-04-21T08:52:55.715Z,28.40
2023-04-21T08:55:29.202Z,22.33
2023-04-21T08:57:57.621Z,25.93
2023-04-21T09:00:27.316Z,27.40
2023-04-21T09:03:01.412Z,25.27
2023-04-21T09:05:32.991Z,25.73
2023-04-21T09:08:12.618Z,26.67
2023-04-21T09:10:49.223Z,27.50
2023-04-21T09:13:18.981Z,25.40
2023-04-21T09:15:52.228Z,25.50
2023-04-21T09:18:23.123Z,24.88
2023-04-21T09:20:53.836Z,25.13
2023-04-21T09:23:22.661Z,22.80
2023-04-21T09:25:50.945Z,25.20
2023-04-21T09:28:19.138Z,22.85
2023-04-21T09:30:49.080Z,22.27
2023-04-21T09:33:27.980Z,25.48
2023-04-21T09:36:03.965Z,25.77
2023-04-21T09:38:32.591Z,26.48
2023-04-21T09:41:04.146Z,22.43
2023-04-21T09:43:34.518Z,23.55
2023-04-21T09:46:07.218Z,25.17
2023-04-21T09:48:37.234Z,23.05
2023-04-21T09:53:41.836Z,20.33
2023-04-21T09:56:14.134Z,22.75
2023-04-21T09:58:47.954Z,22.67
2023-04-21T10:04:10.824Z,21.10
2023-04-21T10:06:39.364Z,18.98
2023-04-21T10:09:19.897Z,22.13
2023-04-21T10:11:49.451Z,21.38
2023-04-21T10:14:17.952Z,21.52
2023-04-21T10:16:57.972Z,22.00
2023-04-21T10:19:28.764Z,21.70
2023-04-21T10:21:58.108Z,21.15
2023-04-21T10:24:30.850Z,19.13
2023-04-21T10:27:01.722Z,22.63
2023-04-21T10:29:43.654Z,19.63
2023-04-21T10:32:32.660Z,21.50
2023-04-21T10:35:00.887Z,20.00
2023-04-21T10:37:32.706Z,21.25
2023-04-21T10:40:00.961Z,20.13
2023-04-21T10:42:36.795Z,20.48
2023-04-21T10:45:13.476Z,20.00
2023-04-21T10:47:51.402Z,21.42
2023-04-21T10:50:23.696Z,20.45
2023-04-21T10:53:02.430Z,23.85
2023-04-21T10:55:31.710Z,19.23
2023-04-21T10:58:04.360Z,21.15
2023-04-21T11:00:33.822Z,18.83
2023-04-21T11:03:05.978Z,19.00
2023-04-21T11:05:40.472Z,21.35
2023-04-21T11:08:12.482Z,17.42
2023-04-21T11:10:55.721Z,18.50
2023-04-21T11:13:27.073Z,18.83
2023-04-21T11:16:02.567Z,18.10
2023-04-21T11:18:41.301Z,17.10
2023-04-21T11:21:18.084Z,16.00
2023-04-21T11:23:51.998Z,19.35
2023-04-21T11:26:35.266Z,14.40
2023-04-21T11:29:07.401Z,15.98
2023-04-21T11:31:36.515Z,15.43
2023-04-21T11:34:07.905Z,16.27
2023-04-21T11:36:36.897Z,15.20
2023-04-21T11:39:09.954Z,14.82
2023-04-21T11:41:40.807Z,14.80
2023-04-21T11:44:09.524Z,14.13
2023-04-21T11:46:38.660Z,14.10
2023-04-21T11:49:12.622Z,15.65
2023-04-21T11:51:42.872Z,13.18
2023-04-21T11:54:13.680Z,14.52
2023-04-21T11:56:43.662Z,16.33
2023-04-21T11:59:14.243Z,13.95
2023-04-21T12:01:46.560Z,16.65
2023-04-21T12:04:18.049Z,14.18
2023-04-21T12:06:47.652Z,11.77
2023-04-21T12:09:21.506Z,12.68
2023-04-21T12:11:51.320Z,13.88
2023-04-21T12:14:21.447Z,11.18
2023-04-21T12:16:51.311Z,12.32
2023-04-21T12:19:37.338Z,13.20
2023-04-21T12:22:09.634Z,11.23
2023-04-21T12:24:38.298Z,10.73
2023-04-21T12:27:07.769Z,12.40
2023-04-21T12:29:37.523Z,13.35
2023-04-21T12:32:06.318Z,11.70
2023-04-21T12:34:36.400Z,13.82
2023-04-21T12:37:06.073Z,12.07
2023-04-21T12:39:34.966Z,12.68
2023-04-21T12:42:03.227Z,10.52
2023-04-21T12:44:31.661Z,10.27
2023-04-21T12:46:59.941Z,8.07
2023-04-21T12:49:28.395Z,7.93
2023-04-21T12:51:58.142Z,9.05
2023-04-21T12:54:26.360Z,7.82
2023-04-21T12:56:55.314Z,7.75
2023-04-21T12:59:23.571Z,9.38
2023-04-21T13:01:52.190Z,9.40
2023-04-21T13:04:20.745Z,10.23
2023-04-21T13:06:49.212Z,8.65
2023-04-21T13:09:19.462Z,6.72
2023-04-21T13:11:47.759Z,7.53
2023-04-21T13:14:16.894Z,8.68
2023-04-21T13:16:45.508Z,6.90
2023-04-21T13:19:13.817Z,7.72
2023-04-21T13:21:42.215Z,6.35
2023-04-21T13:24:14.348Z,7.55
2023-04-21T13:26:44.262Z,8.98
2023-04-21T13:29:12.477Z,8.38
2023-04-21T13:31:40.976Z,5.60
2023-04-21T13:34:09.308Z,8.43
2023-04-21T13:36:37.643Z,6.47
2023-04-21T13:39:07.502Z,7.38
2023-04-21T13:41:35.782Z,6.13
2023-04-21T13:44:05.395Z,5.22
2023-04-21T13:46:33.786Z,8.30
2023-04-21T13:49:02.289Z,6.57
2023-04-21T13:51:32.284Z,5.70
2023-04-21T13:54:00.633Z,6.82
2023-04-21T13:56:28.934Z,7.35
2023-04-21T13:58:57.753Z,8.38
2023-04-21T14:01:32.457Z,6.38
2023-04-21T14:04:03.251Z,6.05
2023-04-21T14:06:41.617Z,5.70
2023-04-21T14:09:15.375Z,6.78
2023-04-21T14:11:52.129Z,4.70
2023-04-21T14:14:31.453Z,5.05
2023-04-21T14:17:08.566Z,6.32
2023-04-21T14:19:37.297Z,5.00
2023-04-21T14:22:05.595Z,5.30
2023-04-21T14:24:33.973Z,5.30
2023-04-21T14:27:02.287Z,4.95
2023-04-21T14:29:30.595Z,4.30
2023-04-21T14:31:59.511Z,4.65
2023-04-21T14:34:29.157Z,5.03
2023-04-21T14:36:59.049Z,4.70
2023-04-21T14:39:27.314Z,5.70
2023-04-21T14:41:56.012Z,5.50
2023-04-21T14:44:24.253Z,5.05
2023-04-21T14:47:05.723Z,5.32
2023-04-21T14:49:39.953Z,5.38
2023-04-21T14:52:08.280Z,5.80
2023-04-21T14:54:36.581Z,6.07
2023-04-21T14:57:18.735Z,4.97
2023-04-21T14:59:49.818Z,6.60
2023-04-21T15:02:18.540Z,4.43
2023-04-21T15:04:48.532Z,5.00
2023-04-21T15:07:22.872Z,5.18
2023-04-21T15:09:52.457Z,6.10
2023-04-21T15:12:21.061Z,5.28
2023-04-21T15:14:49.401Z,4.47
2023-04-21T15:17:17.733Z,5.40
2023-04-21T15:19:47.305Z,6.00
2023-04-21T15:22:15.643Z,4.43
2023-04-21T15:24:43.901Z,4.18
2023-04-21T15:27:12.276Z,4.30
2023-04-21T15:29:40.524Z,3.20
2023-04-21T15:32:08.834Z,4.10
2023-04-21T15:34:37.167Z,4.75
2023-04-21T15:37:06.809Z,3.75
2023-04-21T15:39:35.197Z,4.32
2023-04-21T15:42:04.417Z,5.60
2023-04-21T15:44:33.950Z,4.25
2023-04-21T15:47:02.463Z,3.88
2023-04-21T15:49:31.153Z,5.53
2023-04-21T15:51:59.475Z,4.88
2023-04-21T15:54:29.081Z,4.47
2023-04-21T15:56:57.611Z,3.50
2023-04-21T15:59:26.279Z,3.25
2023-04-21T16:01:56.762Z,3.47
2023-04-21T16:04:25.419Z,2.75
2023-04-21T16:06:53.868Z,3.85
2023-04-21T16:09:22.782Z,5.32
2023-04-21T16:11:52.461Z,3.70
2023-04-21T16:14:20.857Z,4.55
2023-04-21T16:16:49.174Z,4.35
2023-04-21T16:19:17.422Z,4.25
2023-04-21T16:21:45.723Z,3.45
2023-04-21T16:24:14.040Z,3.30
2023-04-21T16:26:42.455Z,4.43
2023-04-21T16:29:12.043Z,2.92
2023-04-21T16:31:40.381Z,2.80
2023-04-21T16:34:09.377Z,3.97
2023-04-21T16:36:38.083Z,6.72
2023-04-21T16:39:06.756Z,3.80
2023-04-21T16:41:34.997Z,4.80
2023-04-21T16:44:03.352Z,3.60
2023-04-21T16:46:33.022Z,3.45
2023-04-21T16:49:01.488Z,3.55
2023-04-21T16:51:29.979Z,3.92
2023-04-21T16:53:58.230Z,2.20
2023-04-21T16:56:26.530Z,3.05
2023-04-21T16:58:54.846Z,2.50
2023-04-21T17:01:23.092Z,2.97
2023-04-21T17:03:52.815Z,2.40
2023-04-21T17:06:21.851Z,4.25
2023-04-21T17:08:50.123Z,2.70
2023-04-21T17:11:18.359Z,3.00
2023-04-21T17:13:46.606Z,2.40
2023-04-21T17:16:14.928Z,2.45
2023-04-21T17:18:43.155Z,2.63
2023-04-21T17:21:14.744Z,2.60
2023-04-21T17:23:43.736Z,3.83
2023-04-21T17:26:13.256Z,2.70
2023-04-21T17:28:41.986Z,3.60
2023-04-21T17:31:15.546Z,2.38
2023-04-21T17:33:44.437Z,2.33
2023-04-21T17:36:14.133Z,3.47
2023-04-21T17:38:43.177Z,2.35
2023-04-21T17:41:11.660Z,3.30
2023-04-21T17:43:40.014Z,2.80
2023-04-21T17:46:08.401Z,4.55
2023-04-21T17:48:36.777Z,3.10
2023-04-21T17:51:05.448Z,2.63
2023-04-21T17:53:35.088Z,2.65
2023-04-21T17:56:03.498Z,2.85
2023-04-21T17:58:31.788Z,4.55
2023-04-21T18:01:00.352Z,2.83
2023-04-21T18:03:28.965Z,2.80
2023-04-21T18:05:58.469Z,2.85
2023-04-21T18:08:26.873Z,3.25
2023-04-21T18:11:01.637Z,3.10
2023-04-21T18:13:29.890Z,3.50
2023-04-21T18:15:58.992Z,2.72
2023-04-21T18:18:27.386Z,3.00
2023-04-21T18:20:55.771Z,2.97
2023-04-21T18:23:24.066Z,2.65
2023-04-21T18:25:52.458Z,2.40
2023-04-21T18:28:22.086Z,3.35
2023-04-21T18:30:51.261Z,3.90
2023-04-21T18:33:19.687Z,3.80
2023-04-21T18:35:48.326Z,5.07
2023-04-21T18:38:16.583Z,9.38
2023-04-21T18:40:44.924Z,20.65
2023-04-21T18:43:13.333Z,23.30
2023-04-21T18:45:42.980Z,18.65
2023-04-21T18:48:11.253Z,13.10
2023-04-21T18:50:41.041Z,11.52
2023-04-21T18:53:09.810Z,9.27
2023-04-21T18:55:38.428Z,7.82
2023-04-21T18:58:07.239Z,6.72
2023-04-21T19:00:38.808Z,7.32
2023-04-21T19:03:09.602Z,8.50
2023-04-21T19:05:40.459Z,7.22
2023-04-21T19:08:10.783Z,6.93
2023-04-21T19:10:39.518Z,7.05
2023-04-21T19:13:07.773Z,7.65
2023-04-21T19:15:36.712Z,8.38
2023-04-21T19:18:05.567Z,6.47
2023-04-21T19:20:35.777Z,7.00
2023-04-21T19:23:04.111Z,7.72
2023-04-21T19:25:33.267Z,4.85
2023-04-21T19:28:02.250Z,6.05
2023-04-21T19:30:30.702Z,6.72
2023-04-21T19:32:59.023Z,3.67
2023-04-21T19:35:27.909Z,14.32
2023-04-21T19:37:57.604Z,25.02
2023-04-21T19:40:26.984Z,6.18
2023-04-21T19:42:55.693Z,5.68
2023-04-21T19:45:24.030Z,3.88
2023-04-21T19:47:52.685Z,4.38
2023-04-21T19:50:21.302Z,3.83
2023-04-21T19:52:54.803Z,4.78
2023-04-21T19:55:24.434Z,3.58
2023-04-21T19:57:53.051Z,4.35
2023-04-21T20:00:21.632Z,3.25
2023-04-21T20:02:50.084Z,5.97
2023-04-21T20:05:19.719Z,4.93
2023-04-21T20:07:48.802Z,4.03
2023-04-21T20:10:17.783Z,3.10
2023-04-21T20:12:47.383Z,4.38
2023-04-21T20:15:17.017Z,3.35
2023-04-21T20:17:47.550Z,3.45
2023-04-21T20:20:16.331Z,3.80
2023-04-21T20:22:44.672Z,3.50
2023-04-21T20:25:13.497Z,3.30
2023-04-21T20:27:42.162Z,6.47
2023-04-21T20:30:12.412Z,4.40
2023-04-21T20:32:40.672Z,3.27
2023-04-21T20:35:11.756Z,4.93
2023-04-21T20:37:40.401Z,6.20
2023-04-21T20:40:11.629Z,5.43
2023-04-21T20:42:40.441Z,3.57
2023-04-21T20:45:11.022Z,4.07
2023-04-21T20:47:39.420Z,7.20
2023-04-21T20:50:09.075Z,3.33
2023-04-21T20:52:37.714Z,3.70
2023-04-21T20:55:07.602Z,3.17
2023-04-21T20:57:36.256Z,3.93
2023-04-21T21:00:07.073Z,3.43
2023-04-21T21:02:36.980Z,2.67
2023-04-21T21:05:06.167Z,4.93
2023-04-21T21:07:34.622Z,3.10
2023-04-21T21:10:03.525Z,4.27
2023-04-21T21:12:31.753Z,3.23
2023-04-21T21:14:59.944Z,3.10
2023-04-21T21:17:28.235Z,4.77
2023-04-21T21:19:58.704Z,4.47
2023-04-21T21:22:27.007Z,3.83
2023-04-21T21:24:55.215Z,4.10
2023-04-21T21:27:24.390Z,5.13
2023-04-21T21:29:52.547Z,4.17
2023-04-21T21:32:20.955Z,4.53
2023-04-21T21:34:49.665Z,4.30
2023-04-21T21:37:19.271Z,4.70
2023-04-21T21:39:47.431Z,5.97
2023-04-21T21:42:15.644Z,5.87
2023-04-21T21:44:43.949Z,3.90
2023-04-21T21:47:12.189Z,4.73
2023-04-21T21:49:40.708Z,4.70
2023-04-21T21:52:09.078Z,3.83
2023-04-21T21:54:39.015Z,4.23
2023-04-21T21:57:07.308Z,7.03
2023-04-21T21:59:35.808Z,9.53
2023-04-21T22:02:04.497Z,3.90
2023-04-21T22:04:33.114Z,3.17
2023-04-21T22:07:13.369Z,6.03
2023-04-21T22:09:46.496Z,4.30
2023-04-21T22:12:14.735Z,5.50
2023-04-21T22:14:42.977Z,4.97
2023-04-21T22:17:11.888Z,5.93
2023-04-21T22:19:41.723Z,5.50
2023-04-21T22:22:10.595Z,5.50
2023-04-21T22:24:38.937Z,4.73
2023-04-21T22:27:08.596Z,5.63
2023-04-21T22:29:37.930Z,5.13
2023-04-21T22:32:06.808Z,6.23
2023-04-21T22:34:35.024Z,4.20
2023-04-21T22:37:03.258Z,4.20
2023-04-21T22:39:31.543Z,4.97
2023-04-21T22:41:59.803Z,4.60
2023-04-21T22:44:29.443Z,5.97
2023-04-21T22:46:57.698Z,4.67
2023-04-21T22:49:26.149Z,7.67
2023-04-21T22:51:54.437Z,6.50
2023-04-21T22:54:22.688Z,9.10
2023-04-21T22:56:50.950Z,6.40
2023-04-21T22:59:19.195Z,8.37
2023-04-21T23:01:53.397Z,6.60
2023-04-21T23:04:21.832Z,6.20
2023-04-21T23:06:50.081Z,4.63
2023-04-21T23:09:18.260Z,5.73
2023-04-21T23:11:46.460Z,4.13
2023-04-21T23:14:14.738Z,5.57
2023-04-21T23:16:43.295Z,5.10
2023-04-21T23:19:12.906Z,3.90
2023-04-21T23:21:41.211Z,5.23
2023-04-21T23:24:09.480Z,5.43
2023-04-21T23:26:37.680Z,3.60
2023-04-21T23:29:06.056Z,3.87
2023-04-21T23:31:34.427Z,3.20
2023-04-21T23:34:02.710Z,3.47
2023-04-21T23:36:32.903Z,5.00
2023-04-21T23:39:01.057Z,6.03
2023-04-21T23:41:29.297Z,3.93
2023-04-21T23:43:58.379Z,5.20
2023-04-21T23:46:27.033Z,5.77
2023-04-21T23:48:55.282Z,4.53
2023-04-21T23:51:23.684Z,6.37
2023-04-21T23:53:53.400Z,5.67
2023-04-21T23:56:22.158Z,5.83
2023-04-21T23:58:50.356Z,5.17
